sensor_id;sensor_type;location;lat;lon;timestamp;P1;durP1;ratioP1;P2;durP2;ratioP2
21148;SDS011;10732;51.472;6.466;2023-01-15T00:01:43;2.60;;;1.13;;
21148;SDS011;10732;51.472;6.466;2023-01-15T00:04:10;3.50;;;1.20;;
21148;SDS011;10732;51.472;6.466;2023-01-15T00:06:37;5.53;;;1.25;;
21148;SDS011;10732;51.472;6.466;2023-01-15T00:09:04;6.30;;;1.30;;
21148;SDS011;10732;51.472;6.466;2023-01-15T00:11:31;5.03;;;1.30;;
21148;SDS011;10732;51.472;6.466;2023-01-15T00:13:57;3.78;;;1.42;;
21148;SDS011;10732;51.472;6.466;2023-01-15T00:16:23;3.33;;;1.77;;
21148;SDS011;10732;51.472;6.466;2023-01-15T00:18:50;5.63;;;1.70;;
21148;SDS011;10732;51.472;6.466;2023-01-15T00:21:20;8.93;;;1.85;;
21148;SDS011;10732;51.472;6.466;2023-01-15T00:23:47;4.15;;;1.60;;
21148;SDS011;10732;51.472;6.466;2023-01-15T00:26:32;4.88;;;1.40;;
21148;SDS011;10732;51.472;6.466;2023-01-15T00:29:17;4.10;;;1.35;;
21148;SDS011;10732;51.472;6.466;2023-01-15T00:31:44;4.90;;;1.58;;
21148;SDS011;10732;51.472;6.466;2023-01-15T00:34:20;2.85;;;1.10;;
21148;SDS011;10732;51.472;6.466;2023-01-15T00:36:45;3.70;;;1.20;;
21148;SDS011;10732;51.472;6.466;2023-01-15T00:39:11;2.25;;;0.90;;
21148;SDS011;10732;51.472;6.466;2023-01-15T00:41:36;3.25;;;1.05;;
21148;SDS011;10732;51.472;6.466;2023-01-15T00:44:02;2.30;;;0.95;;
21148;SDS011;10732;51.472;6.466;2023-01-15T00:46:28;1.70;;;0.90;;
21148;SDS011;10732;51.472;6.466;2023-01-15T00:48:53;1.63;;;1.00;;
21148;SDS011;10732;51.472;6.466;2023-01-15T00:51:19;1.92;;;0.90;;
21148;SDS011;10732;51.472;6.466;2023-01-15T00:53:44;3.05;;;1.02;;
21148;SDS011;10732;51.472;6.466;2023-01-15T00:56:10;1.27;;;0.75;;
21148;SDS011;10732;51.472;6.466;2023-01-15T00:58:35;4.15;;;1.17;;
21148;SDS011;10732;51.472;6.466;2023-01-15T01:01:01;1.83;;;0.95;;
21148;SDS011;10732;51.472;6.466;2023-01-15T01:03:26;6.40;;;1.08;;
21148;SDS011;10732;51.472;6.466;2023-01-15T01:05:52;2.10;;;0.80;;
21148;SDS011;10732;51.472;6.466;2023-01-15T01:08:18;3.47;;;1.00;;
21148;SDS011;10732;51.472;6.466;2023-01-15T01:10:44;1.67;;;0.80;;
21148;SDS011;10732;51.472;6.466;2023-01-15T01:13:10;2.50;;;0.65;;
21148;SDS011;10732;51.472;6.466;2023-01-15T01:15:36;0.85;;;0.75;;
21148;SDS011;10732;51.472;6.466;2023-01-15T01:18:02;1.80;;;0.70;;
21148;SDS011;10732;51.472;6.466;2023-01-15T01:20:29;1.15;;;0.60;;
21148;SDS011;10732;51.472;6.466;2023-01-15T01:22:55;2.92;;;0.98;;
21148;SDS011;10732;51.472;6.466;2023-01-15T01:25:21;3.83;;;0.80;;
21148;SDS011;10732;51.472;6.466;2023-01-15T01:27:48;3.20;;;1.00;;
21148;SDS011;10732;51.472;6.466;2023-01-15T01:30:13;2.60;;;0.82;;
21148;SDS011;10732;51.472;6.466;2023-01-15T01:32:39;2.15;;;0.80;;
21148;SDS011;10732;51.472;6.466;2023-01-15T01:35:08;1.83;;;0.70;;
21148;SDS011;10732;51.472;6.466;2023-01-15T01:37:34;3.17;;;0.80;;
21148;SDS011;10732;51.472;6.466;2023-01-15T01:40:00;3.20;;;0.95;;
21148;SDS011;10732;51.472;6.466;2023-01-15T01:42:25;2.80;;;0.90;;
21148;SDS011;10732;51.472;6.466;2023-01-15T01:47:17;2.40;;;0.93;;
21148;SDS011;10732;51.472;6.466;2023-01-15T01:49:47;4.07;;;0.80;;
21148;SDS011;10732;51.472;6.466;2023-01-15T01:52:24;1.98;;;0.85;;
21148;SDS011;10732;51.472;6.466;2023-01-15T01:55:11;3.25;;;1.15;;
21148;SDS011;10732;51.472;6.466;2023-01-15T01:57:40;2.78;;;1.02;;
21148;SDS011;10732;51.472;6.466;2023-01-15T02:00:06;2.22;;;0.93;;
21148;SDS011;10732;51.472;6.466;2023-01-15T02:02:35;4.00;;;1.17;;
21148;SDS011;10732;51.472;6.466;2023-01-15T02:05:00;6.00;;;1.48;;
21148;SDS011;10732;51.472;6.466;2023-01-15T02:07:27;4.90;;;0.95;;
21148;SDS011;10732;51.472;6.466;2023-01-15T02:09:57;6.43;;;1.20;;
21148;SDS011;10732;51.472;6.466;2023-01-15T02:15:34;2.30;;;0.98;;
21148;SDS011;10732;51.472;6.466;2023-01-15T02:23:10;5.65;;;1.13;;
21148;SDS011;10732;51.472;6.466;2023-01-15T02:26:02;5.25;;;1.20;;
21148;SDS011;10732;51.472;6.466;2023-01-15T02:28:50;7.93;;;1.05;;
21148;SDS011;10732;51.472;6.466;2023-01-15T02:31:24;5.55;;;1.20;;
21148;SDS011;10732;51.472;6.466;2023-01-15T02:36:36;2.47;;;1.00;;
21148;SDS011;10732;51.472;6.466;2023-01-15T02:39:06;3.10;;;1.20;;
21148;SDS011;10732;51.472;6.466;2023-01-15T02:41:38;7.07;;;1.13;;
21148;SDS011;10732;51.472;6.466;2023-01-15T02:44:11;2.88;;;1.10;;
21148;SDS011;10732;51.472;6.466;2023-01-15T02:46:40;5.22;;;1.33;;
21148;SDS011;10732;51.472;6.466;2023-01-15T02:49:07;3.55;;;1.00;;
21148;SDS011;10732;51.472;6.466;2023-01-15T02:51:36;6.80;;;1.40;;
21148;SDS011;10732;51.472;6.466;2023-01-15T02:54:05;7.32;;;1.48;;
21148;SDS011;10732;51.472;6.466;2023-01-15T02:56:37;4.07;;;1.15;;
21148;SDS011;10732;51.472;6.466;2023-01-15T02:59:07;7.80;;;1.40;;
21148;SDS011;10732;51.472;6.466;2023-01-15T03:01:40;4.97;;;1.20;;
21148;SDS011;10732;51.472;6.466;2023-01-15T03:04:21;3.75;;;1.42;;
21148;SDS011;10732;51.472;6.466;2023-01-15T03:09:47;4.65;;;1.30;;
21148;SDS011;10732;51.472;6.466;2023-01-15T03:15:06;5.07;;;1.35;;
21148;SDS011;10732;51.472;6.466;2023-01-15T03:17:57;7.55;;;1.55;;
21148;SDS011;10732;51.472;6.466;2023-01-15T03:20:24;7.97;;;1.55;;
21148;SDS011;10732;51.472;6.466;2023-01-15T03:22:52;5.97;;;1.45;;
21148;SDS011;10732;51.472;6.466;2023-01-15T03:25:25;3.90;;;1.45;;
21148;SDS011;10732;51.472;6.466;2023-01-15T03:27:57;4.30;;;1.38;;
21148;SDS011;10732;51.472;6.466;2023-01-15T03:30:26;5.40;;;1.30;;
21148;SDS011;10732;51.472;6.466;2023-01-15T03:32:52;4.03;;;1.60;;
21148;SDS011;10732;51.472;6.466;2023-01-15T03:35:38;6.90;;;1.33;;
21148;SDS011;10732;51.472;6.466;2023-01-15T03:38:10;6.43;;;1.63;;
21148;SDS011;10732;51.472;6.466;2023-01-15T03:40:47;9.75;;;1.95;;
21148;SDS011;10732;51.472;6.466;2023-01-15T03:43:51;5.15;;;1.45;;
21148;SDS011;10732;51.472;6.466;2023-01-15T03:49:03;6.78;;;1.60;;
21148;SDS011;10732;51.472;6.466;2023-01-15T03:51:41;7.10;;;1.42;;
21148;SDS011;10732;51.472;6.466;2023-01-15T03:54:21;6.97;;;1.83;;
21148;SDS011;10732;51.472;6.466;2023-01-15T03:56:55;5.57;;;1.38;;
21148;SDS011;10732;51.472;6.466;2023-01-15T03:59:35;7.80;;;1.63;;
21148;SDS011;10732;51.472;6.466;2023-01-15T04:02:05;4.13;;;1.38;;
21148;SDS011;10732;51.472;6.466;2023-01-15T04:04:34;7.93;;;1.70;;
21148;SDS011;10732;51.472;6.466;2023-01-15T04:07:00;6.20;;;1.80;;
21148;SDS011;10732;51.472;6.466;2023-01-15T04:09:27;6.65;;;1.77;;
21148;SDS011;10732;51.472;6.466;2023-01-15T04:11:57;8.30;;;1.75;;
21148;SDS011;10732;51.472;6.466;2023-01-15T04:14:23;10.60;;;1.75;;
21148;SDS011;10732;51.472;6.466;2023-01-15T04:16:49;12.02;;;2.10;;
21148;SDS011;10732;51.472;6.466;2023-01-15T04:19:14;9.02;;;2.08;;
21148;SDS011;10732;51.472;6.466;2023-01-15T04:21:40;7.13;;;1.98;;
21148;SDS011;10732;51.472;6.466;2023-01-15T04:24:05;5.78;;;1.45;;
21148;SDS011;10732;51.472;6.466;2023-01-15T04:26:31;9.85;;;1.63;;
21148;SDS011;10732;51.472;6.466;2023-01-15T04:28:56;7.97;;;2.33;;
21148;SDS011;10732;51.472;6.466;2023-01-15T04:31:22;6.63;;;1.98;;
21148;SDS011;10732;51.472;6.466;2023-01-15T04:33:47;8.50;;;1.83;;
21148;SDS011;10732;51.472;6.466;2023-01-15T04:36:13;6.13;;;1.90;;
21148;SDS011;10732;51.472;6.466;2023-01-15T04:38:39;8.43;;;1.70;;
21148;SDS011;10732;51.472;6.466;2023-01-15T04:41:05;7.00;;;1.65;;
21148;SDS011;10732;51.472;6.466;2023-01-15T04:43:49;6.35;;;1.70;;
21148;SDS011;10732;51.472;6.466;2023-01-15T04:46:35;9.95;;;1.92;;
21148;SDS011;10732;51.472;6.466;2023-01-15T04:49:06;6.47;;;1.40;;
21148;SDS011;10732;51.472;6.466;2023-01-15T04:51:37;6.85;;;1.52;;
21148;SDS011;10732;51.472;6.466;2023-01-15T04:54:04;8.88;;;2.03;;
21148;SDS011;10732;51.472;6.466;2023-01-15T04:56:31;11.57;;;1.83;;
21148;SDS011;10732;51.472;6.466;2023-01-15T04:59:01;11.70;;;1.70;;
21148;SDS011;10732;51.472;6.466;2023-01-15T05:01:27;10.68;;;2.20;;
21148;SDS011;10732;51.472;6.466;2023-01-15T05:03:52;8.93;;;1.98;;
21148;SDS011;10732;51.472;6.466;2023-01-15T05:06:18;6.50;;;1.77;;
21148;SDS011;10732;51.472;6.466;2023-01-15T05:08:44;7.38;;;1.63;;
21148;SDS011;10732;51.472;6.466;2023-01-15T05:11:10;7.90;;;1.85;;
21148;SDS011;10732;51.472;6.466;2023-01-15T05:13:35;7.80;;;1.83;;
21148;SDS011;10732;51.472;6.466;2023-01-15T05:16:08;10.02;;;1.80;;
21148;SDS011;10732;51.472;6.466;2023-01-15T05:18:44;10.40;;;1.60;;
21148;SDS011;10732;51.472;6.466;2023-01-15T05:21:21;12.55;;;2.10;;
21148;SDS011;10732;51.472;6.466;2023-01-15T05:23:49;9.25;;;1.70;;
21148;SDS011;10732;51.472;6.466;2023-01-15T05:26:16;8.40;;;1.58;;
21148;SDS011;10732;51.472;6.466;2023-01-15T05:28:43;5.38;;;1.63;;
21148;SDS011;10732;51.472;6.466;2023-01-15T05:31:10;11.75;;;2.25;;
21148;SDS011;10732;51.472;6.466;2023-01-15T05:33:37;10.00;;;1.98;;
21148;SDS011;10732;51.472;6.466;2023-01-15T05:36:04;8.43;;;1.60;;
21148;SDS011;10732;51.472;6.466;2023-01-15T05:38:35;9.95;;;1.83;;
21148;SDS011;10732;51.472;6.466;2023-01-15T05:41:05;9.07;;;2.00;;
21148;SDS011;10732;51.472;6.466;2023-01-15T05:43:50;8.07;;;2.00;;
21148;SDS011;10732;51.472;6.466;2023-01-15T05:46:16;9.52;;;2.15;;
21148;SDS011;10732;51.472;6.466;2023-01-15T05:48:41;8.20;;;1.98;;
21148;SDS011;10732;51.472;6.466;2023-01-15T05:51:07;8.80;;;2.03;;
21148;SDS011;10732;51.472;6.466;2023-01-15T05:53:33;7.97;;;2.00;;
21148;SDS011;10732;51.472;6.466;2023-01-15T05:56:01;7.68;;;1.77;;
21148;SDS011;10732;51.472;6.466;2023-01-15T05:58:27;8.82;;;2.05;;
21148;SDS011;10732;51.472;6.466;2023-01-15T06:00:53;7.43;;;1.83;;
21148;SDS011;10732;51.472;6.466;2023-01-15T06:03:20;10.80;;;1.90;;
21148;SDS011;10732;51.472;6.466;2023-01-15T06:05:49;7.68;;;1.80;;
21148;SDS011;10732;51.472;6.466;2023-01-15T06:08:18;9.70;;;1.80;;
21148;SDS011;10732;51.472;6.466;2023-01-15T06:10:45;9.85;;;2.05;;
21148;SDS011;10732;51.472;6.466;2023-01-15T06:13:10;9.20;;;2.13;;
21148;SDS011;10732;51.472;6.466;2023-01-15T06:15:37;9.02;;;2.15;;
21148;SDS011;10732;51.472;6.466;2023-01-15T06:18:03;7.57;;;1.92;;
21148;SDS011;10732;51.472;6.466;2023-01-15T06:20:28;11.75;;;2.25;;
21148;SDS011;10732;51.472;6.466;2023-01-15T06:22:54;6.80;;;2.08;;
21148;SDS011;10732;51.472;6.466;2023-01-15T06:25:20;9.38;;;1.50;;
21148;SDS011;10732;51.472;6.466;2023-01-15T06:27:45;12.77;;;1.98;;
21148;SDS011;10732;51.472;6.466;2023-01-15T06:30:13;7.60;;;1.80;;
21148;SDS011;10732;51.472;6.466;2023-01-15T06:32:39;8.48;;;2.00;;
21148;SDS011;10732;51.472;6.466;2023-01-15T06:35:05;9.55;;;2.08;;
21148;SDS011;10732;51.472;6.466;2023-01-15T06:37:31;6.72;;;1.83;;
21148;SDS011;10732;51.472;6.466;2023-01-15T06:39:56;11.80;;;1.70;;
21148;SDS011;10732;51.472;6.466;2023-01-15T06:42:22;7.10;;;1.58;;
21148;SDS011;10732;51.472;6.466;2023-01-15T06:45:08;9.15;;;1.73;;
21148;SDS011;10732;51.472;6.466;2023-01-15T06:47:53;7.82;;;1.70;;
21148;SDS011;10732;51.472;6.466;2023-01-15T06:50:18;7.05;;;1.60;;
21148;SDS011;10732;51.472;6.466;2023-01-15T06:52:44;9.82;;;2.00;;
21148;SDS011;10732;51.472;6.466;2023-01-15T06:55:10;11.35;;;2.20;;
21148;SDS011;10732;51.472;6.466;2023-01-15T06:57:38;9.13;;;1.75;;
21148;SDS011;10732;51.472;6.466;2023-01-15T07:00:08;7.03;;;1.90;;
21148;SDS011;10732;51.472;6.466;2023-01-15T07:02:34;8.48;;;1.42;;
21148;SDS011;10732;51.472;6.466;2023-01-15T07:05:00;8.80;;;2.20;;
21148;SDS011;10732;51.472;6.466;2023-01-15T07:07:26;6.80;;;1.42;;
21148;SDS011;10732;51.472;6.466;2023-01-15T07:09:53;8.63;;;1.73;;
21148;SDS011;10732;51.472;6.466;2023-01-15T07:12:18;4.88;;;1.42;;
21148;SDS011;10732;51.472;6.466;2023-01-15T07:14:44;5.88;;;1.80;;
21148;SDS011;10732;51.472;6.466;2023-01-15T07:17:11;5.25;;;1.40;;
21148;SDS011;10732;51.472;6.466;2023-01-15T07:19:36;8.50;;;1.73;;
21148;SDS011;10732;51.472;6.466;2023-01-15T07:22:02;5.05;;;1.27;;
21148;SDS011;10732;51.472;6.466;2023-01-15T07:24:29;5.45;;;1.60;;
21148;SDS011;10732;51.472;6.466;2023-01-15T07:26:54;5.10;;;1.35;;
21148;SDS011;10732;51.472;6.466;2023-01-15T07:29:20;5.10;;;1.55;;
21148;SDS011;10732;51.472;6.466;2023-01-15T07:31:47;3.85;;;1.35;;
21148;SDS011;10732;51.472;6.466;2023-01-15T07:34:13;7.72;;;1.70;;
21148;SDS011;10732;51.472;6.466;2023-01-15T07:36:38;3.75;;;1.40;;
21148;SDS011;10732;51.472;6.466;2023-01-15T07:39:04;11.65;;;1.60;;
21148;SDS011;10732;51.472;6.466;2023-01-15T07:41:30;9.05;;;1.63;;
21148;SDS011;10732;51.472;6.466;2023-01-15T07:44:14;8.38;;;1.75;;
21148;SDS011;10732;51.472;6.466;2023-01-15T07:46:58;6.07;;;1.40;;
21148;SDS011;10732;51.472;6.466;2023-01-15T07:49:43;9.40;;;1.67;;
21148;SDS011;10732;51.472;6.466;2023-01-15T07:52:15;5.28;;;1.52;;
21148;SDS011;10732;51.472;6.466;2023-01-15T07:54:45;6.22;;;1.63;;
21148;SDS011;10732;51.472;6.466;2023-01-15T07:57:12;6.43;;;1.83;;
21148;SDS011;10732;51.472;6.466;2023-01-15T07:59:41;7.10;;;2.22;;
21148;SDS011;10732;51.472;6.466;2023-01-15T08:02:07;6.18;;;1.60;;
21148;SDS011;10732;51.472;6.466;2023-01-15T08:04:33;6.53;;;1.85;;
21148;SDS011;10732;51.472;6.466;2023-01-15T08:06:59;8.68;;;1.63;;
21148;SDS011;10732;51.472;6.466;2023-01-15T08:09:26;7.88;;;1.50;;
21148;SDS011;10732;51.472;6.466;2023-01-15T08:11:52;6.80;;;1.75;;
21148;SDS011;10732;51.472;6.466;2023-01-15T08:14:36;8.75;;;1.80;;
21148;SDS011;10732;51.472;6.466;2023-01-15T08:17:20;8.13;;;1.65;;
21148;SDS011;10732;51.472;6.466;2023-01-15T08:19:45;6.82;;;1.60;;
21148;SDS011;10732;51.472;6.466;2023-01-15T08:22:11;9.50;;;1.88;;
21148;SDS011;10732;51.472;6.466;2023-01-15T08:24:37;6.50;;;2.10;;
21148;SDS011;10732;51.472;6.466;2023-01-15T08:27:02;5.95;;;1.90;;
21148;SDS011;10732;51.472;6.466;2023-01-15T08:29:28;8.27;;;1.33;;
21148;SDS011;10732;51.472;6.466;2023-01-15T08:31:53;6.15;;;1.77;;
21148;SDS011;10732;51.472;6.466;2023-01-15T08:34:19;6.65;;;1.48;;
21148;SDS011;10732;51.472;6.466;2023-01-15T08:36:45;5.18;;;1.42;;
21148;SDS011;10732;51.472;6.466;2023-01-15T08:39:11;7.25;;;1.55;;
21148;SDS011;10732;51.472;6.466;2023-01-15T08:41:36;5.50;;;1.40;;
21148;SDS011;10732;51.472;6.466;2023-01-15T08:44:02;8.10;;;1.55;;
21148;SDS011;10732;51.472;6.466;2023-01-15T08:46:28;4.57;;;1.30;;
21148;SDS011;10732;51.472;6.466;2023-01-15T08:48:53;3.95;;;1.20;;
21148;SDS011;10732;51.472;6.466;2023-01-15T08:51:19;6.97;;;1.20;;
21148;SDS011;10732;51.472;6.466;2023-01-15T08:53:44;6.90;;;1.50;;
21148;SDS011;10732;51.472;6.466;2023-01-15T08:56:14;5.07;;;1.60;;
21148;SDS011;10732;51.472;6.466;2023-01-15T08:58:42;5.88;;;1.33;;
21148;SDS011;10732;51.472;6.466;2023-01-15T09:01:08;7.88;;;1.60;;
21148;SDS011;10732;51.472;6.466;2023-01-15T09:03:35;6.28;;;2.00;;
21148;SDS011;10732;51.472;6.466;2023-01-15T09:06:02;6.90;;;1.30;;
21148;SDS011;10732;51.472;6.466;2023-01-15T09:08:28;5.35;;;1.10;;
21148;SDS011;10732;51.472;6.466;2023-01-15T09:10:57;2.97;;;0.85;;
21148;SDS011;10732;51.472;6.466;2023-01-15T09:13:24;6.05;;;1.10;;
21148;SDS011;10732;51.472;6.466;2023-01-15T09:15:50;5.30;;;1.33;;
21148;SDS011;10732;51.472;6.466;2023-01-15T09:18:16;6.20;;;1.38;;
21148;SDS011;10732;51.472;6.466;2023-01-15T09:20:44;7.30;;;1.50;;
21148;SDS011;10732;51.472;6.466;2023-01-15T09:23:10;3.42;;;1.38;;
21148;SDS011;10732;51.472;6.466;2023-01-15T09:25:36;2.63;;;0.85;;
21148;SDS011;10732;51.472;6.466;2023-01-15T09:28:01;4.40;;;1.27;;
21148;SDS011;10732;51.472;6.466;2023-01-15T09:30:27;4.65;;;1.10;;
21148;SDS011;10732;51.472;6.466;2023-01-15T09:32:53;4.25;;;1.30;;
21148;SDS011;10732;51.472;6.466;2023-01-15T09:35:19;2.90;;;1.25;;
21148;SDS011;10732;51.472;6.466;2023-01-15T09:37:49;4.30;;;1.38;;
21148;SDS011;10732;51.472;6.466;2023-01-15T09:40:39;4.50;;;1.23;;
21148;SDS011;10732;51.472;6.466;2023-01-15T09:43:07;5.10;;;1.52;;
21148;SDS011;10732;51.472;6.466;2023-01-15T09:45:56;5.85;;;1.30;;
21148;SDS011;10732;51.472;6.466;2023-01-15T09:48:32;4.25;;;1.45;;
21148;SDS011;10732;51.472;6.466;2023-01-15T09:56:29;5.97;;;1.60;;
21148;SDS011;10732;51.472;6.466;2023-01-15T09:58:57;4.25;;;1.27;;
21148;SDS011;10732;51.472;6.466;2023-01-15T10:01:26;6.20;;;1.50;;
21148;SDS011;10732;51.472;6.466;2023-01-15T10:04:12;4.88;;;1.52;;
21148;SDS011;10732;51.472;6.466;2023-01-15T10:06:49;5.38;;;1.45;;
21148;SDS011;10732;51.472;6.466;2023-01-15T10:09:21;6.10;;;1.83;;
21148;SDS011;10732;51.472;6.466;2023-01-15T10:11:54;5.55;;;1.38;;
21148;SDS011;10732;51.472;6.466;2023-01-15T10:14:53;7.05;;;1.60;;
21148;SDS011;10732;51.472;6.466;2023-01-15T10:17:38;6.47;;;1.38;;
21148;SDS011;10732;51.472;6.466;2023-01-15T10:20:16;5.00;;;1.80;;
21148;SDS011;10732;51.472;6.466;2023-01-15T10:22:55;5.88;;;1.73;;
21148;SDS011;10732;51.472;6.466;2023-01-15T10:25:49;7.38;;;1.48;;
21148;SDS011;10732;51.472;6.466;2023-01-15T10:31:20;5.43;;;1.42;;
21148;SDS011;10732;51.472;6.466;2023-01-15T10:36:43;6.72;;;1.67;;
21148;SDS011;10732;51.472;6.466;2023-01-15T10:47:31;7.45;;;1.70;;
21148;SDS011;10732;51.472;6.466;2023-01-15T10:50:00;5.60;;;1.63;;
21148;SDS011;10732;51.472;6.466;2023-01-15T10:55:05;7.25;;;1.48;;
21148;SDS011;10732;51.472;6.466;2023-01-15T10:57:59;10.48;;;1.85;;
21148;SDS011;10732;51.472;6.466;2023-01-15T11:00:33;8.23;;;2.10;;
21148;SDS011;10732;51.472;6.466;2023-01-15T11:03:01;7.82;;;1.90;;
21148;SDS011;10732;51.472;6.466;2023-01-15T11:05:32;5.43;;;1.55;;
21148;SDS011;10732;51.472;6.466;2023-01-15T11:08:00;5.97;;;1.33;;
21148;SDS011;10732;51.472;6.466;2023-01-15T11:10:30;6.47;;;1.67;;
21148;SDS011;10732;51.472;6.466;2023-01-15T11:12:57;9.30;;;1.92;;
21148;SDS011;10732;51.472;6.466;2023-01-15T11:15:52;7.20;;;1.52;;
21148;SDS011;10732;51.472;6.466;2023-01-15T11:18:40;5.63;;;1.50;;
21148;SDS011;10732;51.472;6.466;2023-01-15T11:21:26;4.78;;;1.40;;
21148;SDS011;10732;51.472;6.466;2023-01-15T11:23:53;6.47;;;1.60;;
21148;SDS011;10732;51.472;6.466;2023-01-15T11:26:22;6.35;;;1.58;;
21148;SDS011;10732;51.472;6.466;2023-01-15T11:28:52;7.20;;;1.95;;
21148;SDS011;10732;51.472;6.466;2023-01-15T11:31:19;5.70;;;1.38;;
21148;SDS011;10732;51.472;6.466;2023-01-15T11:33:58;6.22;;;2.03;;
21148;SDS011;10732;51.472;6.466;2023-01-15T11:36:26;9.20;;;1.80;;
21148;SDS011;10732;51.472;6.466;2023-01-15T11:38:52;4.18;;;1.30;;
21148;SDS011;10732;51.472;6.466;2023-01-15T11:41:19;6.72;;;1.70;;
21148;SDS011;10732;51.472;6.466;2023-01-15T11:44:18;5.35;;;1.50;;
21148;SDS011;10732;51.472;6.466;2023-01-15T11:47:09;7.03;;;1.55;;
21148;SDS011;10732;51.472;6.466;2023-01-15T11:49:55;3.20;;;1.20;;
21148;SDS011;10732;51.472;6.466;2023-01-15T11:52:49;6.60;;;1.58;;
21148;SDS011;10732;51.472;6.466;2023-01-15T11:55:20;4.18;;;1.20;;
21148;SDS011;10732;51.472;6.466;2023-01-15T11:57:48;5.70;;;1.40;;
21148;SDS011;10732;51.472;6.466;2023-01-15T12:00:27;5.68;;;1.20;;
21148;SDS011;10732;51.472;6.466;2023-01-15T12:02:57;5.95;;;1.38;;
21148;SDS011;10732;51.472;6.466;2023-01-15T12:05:29;5.40;;;1.10;;
21148;SDS011;10732;51.472;6.466;2023-01-15T12:08:03;5.20;;;1.10;;
21148;SDS011;10732;51.472;6.466;2023-01-15T12:10:53;4.57;;;1.30;;
21148;SDS011;10732;51.472;6.466;2023-01-15T12:13:47;1.88;;;0.90;;
21148;SDS011;10732;51.472;6.466;2023-01-15T12:22:06;4.88;;;0.93;;
21148;SDS011;10732;51.472;6.466;2023-01-15T12:24:45;3.75;;;1.27;;
21148;SDS011;10732;51.472;6.466;2023-01-15T12:32:38;5.22;;;1.00;;
21148;SDS011;10732;51.472;6.466;2023-01-15T12:35:13;4.53;;;1.10;;
21148;SDS011;10732;51.472;6.466;2023-01-15T12:38:08;4.10;;;1.17;;
21148;SDS011;10732;51.472;6.466;2023-01-15T12:40:42;3.78;;;1.20;;
21148;SDS011;10732;51.472;6.466;2023-01-15T12:43:22;6.45;;;1.40;;
21148;SDS011;10732;51.472;6.466;2023-01-15T12:46:14;3.72;;;1.13;;
21148;SDS011;10732;51.472;6.466;2023-01-15T12:52:10;3.78;;;1.10;;
21148;SDS011;10732;51.472;6.466;2023-01-15T12:54:44;2.30;;;1.02;;
21148;SDS011;10732;51.472;6.466;2023-01-15T12:57:23;3.33;;;0.95;;
21148;SDS011;10732;51.472;6.466;2023-01-15T12:59:55;4.70;;;1.05;;
21148;SDS011;10732;51.472;6.466;2023-01-15T13:10:55;4.35;;;1.10;;
21148;SDS011;10732;51.472;6.466;2023-01-15T13:13:38;3.95;;;1.20;;
21148;SDS011;10732;51.472;6.466;2023-01-15T13:21:27;3.85;;;1.27;;
21148;SDS011;10732;51.472;6.466;2023-01-15T13:29:24;3.75;;;1.10;;
21148;SDS011;10732;51.472;6.466;2023-01-15T13:32:14;9.77;;;1.50;;
21148;SDS011;10732;51.472;6.466;2023-01-15T13:37:23;4.60;;;1.35;;
21148;SDS011;10732;51.472;6.466;2023-01-15T13:40:02;4.65;;;1.60;;
21148;SDS011;10732;51.472;6.466;2023-01-15T13:42:45;4.95;;;1.30;;
21148;SDS011;10732;51.472;6.466;2023-01-15T13:47:37;7.60;;;1.50;;
21148;SDS011;10732;51.472;6.466;2023-01-15T13:50:12;3.67;;;1.27;;
21148;SDS011;10732;51.472;6.466;2023-01-15T13:52:41;4.35;;;1.48;;
21148;SDS011;10732;51.472;6.466;2023-01-15T13:55:26;2.55;;;1.35;;
21148;SDS011;10732;51.472;6.466;2023-01-15T13:57:55;4.85;;;1.50;;
21148;SDS011;10732;51.472;6.466;2023-01-15T14:00:31;1.95;;;1.20;;
21148;SDS011;10732;51.472;6.466;2023-01-15T14:03:01;4.22;;;1.23;;
21148;SDS011;10732;51.472;6.466;2023-01-15T14:05:52;5.63;;;1.42;;
21148;SDS011;10732;51.472;6.466;2023-01-15T14:08:26;4.95;;;1.05;;
21148;SDS011;10732;51.472;6.466;2023-01-15T14:11:00;7.13;;;1.48;;
21148;SDS011;10732;51.472;6.466;2023-01-15T14:13:35;3.65;;;1.27;;
21148;SDS011;10732;51.472;6.466;2023-01-15T14:16:21;3.90;;;1.42;;
21148;SDS011;10732;51.472;6.466;2023-01-15T14:21:59;4.28;;;1.45;;
21148;SDS011;10732;51.472;6.466;2023-01-15T14:27:33;4.53;;;1.23;;
21148;SDS011;10732;51.472;6.466;2023-01-15T14:32:59;6.07;;;1.40;;
21148;SDS011;10732;51.472;6.466;2023-01-15T14:35:33;4.45;;;1.20;;
21148;SDS011;10732;51.472;6.466;2023-01-15T14:38:10;3.38;;;1.20;;
21148;SDS011;10732;51.472;6.466;2023-01-15T14:40:56;4.63;;;1.20;;
21148;SDS011;10732;51.472;6.466;2023-01-15T14:43:23;4.50;;;1.20;;
21148;SDS011;10732;51.472;6.466;2023-01-15T14:45:52;6.38;;;1.00;;
21148;SDS011;10732;51.472;6.466;2023-01-15T14:50:45;3.63;;;1.23;;
21148;SDS011;10732;51.472;6.466;2023-01-15T14:55:46;4.65;;;1.98;;
21148;SDS011;10732;51.472;6.466;2023-01-15T15:01:27;3.40;;;1.30;;
21148;SDS011;10732;51.472;6.466;2023-01-15T15:07:07;4.28;;;1.33;;
21148;SDS011;10732;51.472;6.466;2023-01-15T15:09:44;3.47;;;1.40;;
21148;SDS011;10732;51.472;6.466;2023-01-15T15:12:18;4.93;;;1.30;;
21148;SDS011;10732;51.472;6.466;2023-01-15T15:17:42;5.75;;;1.30;;
21148;SDS011;10732;51.472;6.466;2023-01-15T15:20:19;5.20;;;1.27;;
21148;SDS011;10732;51.472;6.466;2023-01-15T15:23:12;6.45;;;1.25;;
21148;SDS011;10732;51.472;6.466;2023-01-15T15:25:56;5.18;;;1.30;;
21148;SDS011;10732;51.472;6.466;2023-01-15T15:28:27;4.65;;;1.10;;
21148;SDS011;10732;51.472;6.466;2023-01-15T15:30:54;3.33;;;1.00;;
21148;SDS011;10732;51.472;6.466;2023-01-15T15:33:24;4.68;;;1.40;;
21148;SDS011;10732;51.472;6.466;2023-01-15T15:35:56;9.75;;;1.20;;
21148;SDS011;10732;51.472;6.466;2023-01-15T15:38:24;4.50;;;1.30;;
21148;SDS011;10732;51.472;6.466;2023-01-15T15:40:54;3.05;;;1.13;;
21148;SDS011;10732;51.472;6.466;2023-01-15T15:46:23;2.88;;;0.82;;
21148;SDS011;10732;51.472;6.466;2023-01-15T15:49:12;4.63;;;1.20;;
21148;SDS011;10732;51.472;6.466;2023-01-15T15:57:04;5.15;;;1.27;;
21148;SDS011;10732;51.472;6.466;2023-01-15T15:59:43;3.63;;;1.25;;
21148;SDS011;10732;51.472;6.466;2023-01-15T16:02:16;3.00;;;1.02;;
21148;SDS011;10732;51.472;6.466;2023-01-15T16:04:45;5.85;;;1.08;;
21148;SDS011;10732;51.472;6.466;2023-01-15T16:07:33;3.22;;;1.30;;
21148;SDS011;10732;51.472;6.466;2023-01-15T16:09:59;1.90;;;0.90;;
21148;SDS011;10732;51.472;6.466;2023-01-15T16:12:51;3.15;;;1.20;;
21148;SDS011;10732;51.472;6.466;2023-01-15T16:15:28;5.57;;;1.48;;
21148;SDS011;10732;51.472;6.466;2023-01-15T16:17:57;5.95;;;1.00;;
21148;SDS011;10732;51.472;6.466;2023-01-15T16:20:25;5.75;;;1.10;;
21148;SDS011;10732;51.472;6.466;2023-01-15T16:22:56;3.80;;;1.10;;
21148;SDS011;10732;51.472;6.466;2023-01-15T16:25:33;3.03;;;1.10;;
21148;SDS011;10732;51.472;6.466;2023-01-15T16:28:02;2.05;;;0.90;;
21148;SDS011;10732;51.472;6.466;2023-01-15T16:30:29;2.75;;;1.00;;
21148;SDS011;10732;51.472;6.466;2023-01-15T16:32:59;5.00;;;1.20;;
21148;SDS011;10732;51.472;6.466;2023-01-15T16:35:27;5.07;;;1.13;;
21148;SDS011;10732;51.472;6.466;2023-01-15T16:37:55;3.85;;;1.00;;
21148;SDS011;10732;51.472;6.466;2023-01-15T16:40:56;3.08;;;1.15;;
21148;SDS011;10732;51.472;6.466;2023-01-15T16:43:15;4.57;;;1.15;;
21148;SDS011;10732;51.472;6.466;2023-01-15T16:46:31;5.25;;;1.20;;
21148;SDS011;10732;51.472;6.466;2023-01-15T16:48:42;3.55;;;1.23;;
21148;SDS011;10732;51.472;6.466;2023-01-15T16:51:23;5.03;;;1.60;;
21148;SDS011;10732;51.472;6.466;2023-01-15T16:53:55;5.30;;;1.20;;
21148;SDS011;10732;51.472;6.466;2023-01-15T16:58:58;5.43;;;1.38;;
21148;SDS011;10732;51.472;6.466;2023-01-15T17:06:53;4.40;;;1.00;;
21148;SDS011;10732;51.472;6.466;2023-01-15T17:09:24;3.33;;;1.27;;
21148;SDS011;10732;51.472;6.466;2023-01-15T17:11:50;3.17;;;0.90;;
21148;SDS011;10732;51.472;6.466;2023-01-15T17:14:22;3.50;;;1.20;;
21148;SDS011;10732;51.472;6.466;2023-01-15T17:19:47;4.65;;;1.42;;